Kalar Kahar Weather



Kalar Kahar's Current Weather

Temprature 23.25o broken clouds

broken clouds

Rain: 0 %

Min Temprature23.25o
Max Temprature23.25o
Humidity69
Wind Speed1.1 m/h
Sun Rise05:59:38
Sun Set18:01:40
Current Time: 26-Sep-2022 08:35:02
Lat/Lon: 32.7818, 72.6994




Kalar Kahar's Geo Location



Kalar Kahar's Weather Forecast

Time Overall Temp Min Temp Max Temp Humidity Wind Speed Rain
26-Sep-2022 (Mon)
11:00:00 light rain 23.530 23.530 26.900 69 0.96 m/h 19 %
14:00:00 scattered clouds 26.870 26.870 29.380 56 1.68 m/h 0 %
17:00:00 clear sky 29.340 29.340 29.340 45 1.47 m/h 0 %
20:00:00 clear sky 26.250 26.250 26.250 60 0.62 m/h 0 %
23:00:00 clear sky 25.210 25.210 25.210 62 1.19 m/h 0 %
27-Sep-2022 (Tue)
02:00:00 clear sky 24.380 24.380 24.380 65 1.2 m/h 0 %
05:00:00 clear sky 23.630 23.630 23.630 67 1.07 m/h 0 %
08:00:00 clear sky 25.670 25.670 25.670 59 1.68 m/h 0 %
11:00:00 clear sky 28.810 28.810 28.810 48 1.88 m/h 0 %
14:00:00 clear sky 30.950 30.950 30.950 39 1.61 m/h 0 %
17:00:00 clear sky 30.650 30.650 30.650 40 1.72 m/h 0 %
20:00:00 clear sky 26.920 26.920 26.920 53 1.26 m/h 0 %
23:00:00 clear sky 25.980 25.980 25.980 56 1.35 m/h 0 %
28-Sep-2022 (Wed)
02:00:00 clear sky 24.130 24.130 24.130 64 2.76 m/h 0 %
05:00:00 clear sky 23.530 23.530 23.530 68 2.38 m/h 0 %
08:00:00 clear sky 25.530 25.530 25.530 62 2.16 m/h 0 %
11:00:00 clear sky 29.310 29.310 29.310 49 2.57 m/h 0 %
14:00:00 clear sky 31.320 31.320 31.320 41 2.72 m/h 0 %
17:00:00 clear sky 30.510 30.510 30.510 43 3.5 m/h 0 %
20:00:00 clear sky 27.350 27.350 27.350 53 1.87 m/h 0 %
23:00:00 clear sky 26.500 26.500 26.500 54 1.78 m/h 0 %
29-Sep-2022 (Thu)
02:00:00 clear sky 24.800 24.800 24.800 62 2.42 m/h 0 %
05:00:00 clear sky 23.800 23.800 23.800 69 1.94 m/h 0 %
08:00:00 clear sky 26.310 26.310 26.310 60 1.48 m/h 0 %
11:00:00 clear sky 30.170 30.170 30.170 45 2.72 m/h 0 %
14:00:00 clear sky 31.700 31.700 31.700 39 3.34 m/h 0 %
17:00:00 clear sky 30.820 30.820 30.820 41 3.25 m/h 0 %
20:00:00 light rain 25.310 25.310 25.310 63 3.98 m/h 64 %
23:00:00 light rain 26.210 26.210 26.210 50 0.99 m/h 15 %
30-Sep-2022 (Fri)
02:00:00 clear sky 24.880 24.880 24.880 54 2.28 m/h 0 %
05:00:00 clear sky 23.990 23.990 23.990 60 1.35 m/h 0 %
08:00:00 clear sky 26.800 26.800 26.800 53 1.21 m/h 0 %
11:00:00 clear sky 31.010 31.010 31.010 35 2.18 m/h 0 %
14:00:00 clear sky 32.620 32.620 32.620 29 3.55 m/h 0 %
17:00:00 clear sky 31.610 31.610 31.610 32 2.52 m/h 0 %
20:00:00 clear sky 28.040 28.040 28.040 39 1.85 m/h 0 %
23:00:00 clear sky 26.630 26.630 26.630 45 2.07 m/h 0 %
01-Oct-2022 (Sat)
02:00:00 clear sky 24.640 24.640 24.640 55 2.81 m/h 0 %
05:00:00 clear sky 23.740 23.740 23.740 60 1.71 m/h 0 %
08:00:00 clear sky 26.590 26.590 26.590 53 1.9 m/h 0 %

Famous Cities (61)